Time;durP1;ratioP1;P1;durP2;ratioP2;P2;SDS_P1;SDS_P2;PMS_P1;PMS_P2;Temp;Humidity;BMP_temperature;BMP_pressure;BME280_temperature;BME280_humidity;BME280_pressure;Samples;Min_cycle;Max_cycle;Signal;HPM_P1;HPM_P2
2023/11/17 00:00:57;;;;;;;27.98;16.58;;;4.30;99.90;;;;;;5038019;28;20129;-75
2023/11/17 00:03:23;;;;;;;30.27;18.45;;;4.30;99.90;;;;;;5037631;28;20055;-75
2023/11/17 00:05:49;;;;;;;30.98;17.77;;;4.30;99.90;;;;;;5038244;28;20023;-79
2023/11/17 00:08:15;;;;;;;30.42;17.63;;;4.30;99.90;;;;;;4971327;28;20042;-75
2023/11/17 00:10:41;;;;;;;27.83;17.75;;;4.30;99.90;;;;;;5038120;28;20042;-76
2023/11/17 00:13:07;;;;;;;26.33;16.08;;;4.30;99.90;;;;;;5037136;28;20046;-75
2023/11/17 00:15:33;;;;;;;28.67;15.77;;;4.40;99.90;;;;;;5037928;28;20027;-76
2023/11/17 00:17:59;;;;;;;27.33;16.20;;;4.30;99.90;;;;;;4971307;28;20093;-76
2023/11/17 00:20:25;;;;;;;29.42;16.38;;;4.30;99.90;;;;;;5037973;28;20037;-81
2023/11/17 00:22:50;;;;;;;23.15;14.98;;;4.30;99.90;;;;;;5036402;28;20052;-76
2023/11/17 00:25:17;;;;;;;28.23;16.55;;;4.30;99.90;;;;;;5037721;28;20164;-80
2023/11/17 00:27:43;;;;;;;27.73;16.40;;;4.30;99.90;;;;;;4971076;28;20476;-75
2023/11/17 00:30:13;;;;;;;31.92;17.33;;;4.30;99.90;;;;;;4970378;28;20026;-81
2023/11/17 00:32:39;;;;;;;32.40;17.33;;;4.20;99.90;;;;;;5037875;28;20023;-75
2023/11/17 00:35:06;;;;;;;33.95;17.90;;;4.30;99.90;;;;;;4971208;28;20019;-80
2023/11/17 00:37:32;;;;;;;33.67;19.45;;;4.20;99.90;;;;;;4970777;28;20034;-81
2023/11/17 00:39:58;;;;;;;30.95;17.60;;;4.20;99.90;;;;;;4971031;28;20027;-75
2023/11/17 00:42:23;;;;;;;39.33;21.75;;;4.20;99.90;;;;;;5036959;28;20221;-81
2023/11/17 00:44:49;;;;;;;37.05;20.45;;;4.20;99.90;;;;;;5037619;28;20458;-81
2023/11/17 00:47:15;;;;;;;31.85;18.27;;;4.20;99.90;;;;;;5037513;28;20015;-75
2023/11/17 00:49:42;;;;;;;31.50;19.25;;;4.20;99.90;;;;;;5037688;28;20035;-81
2023/11/17 00:52:09;;;;;;;35.53;19.00;;;4.20;99.90;;;;;;4970663;28;20023;-76
2023/11/17 00:54:42;;;;;;;32.00;19.80;;;4.10;99.90;;;;;;5037482;28;20027;-81
2023/11/17 00:57:12;;;;;;;41.25;21.52;;;4.10;99.90;;;;;;4970367;28;20066;-81
2023/11/17 00:59:40;;;;;;;37.08;20.52;;;4.10;99.90;;;;;;5037522;28;20030;-81
2023/11/17 01:02:06;;;;;;;44.70;23.15;;;4.10;99.90;;;;;;5037011;28;20042;-81
2023/11/17 01:04:32;;;;;;;41.47;23.20;;;4.10;99.90;;;;;;5037628;28;20023;-75
2023/11/17 01:06:58;;;;;;;39.45;21.00;;;4.10;99.90;;;;;;4970359;28;20030;-81
2023/11/17 01:09:25;;;;;;;40.20;20.08;;;4.10;99.90;;;;;;4970861;28;20076;-80
2023/11/17 01:11:54;;;;;;;42.83;23.35;;;4.10;99.90;;;;;;4970421;28;20110;-80
2023/11/17 01:14:20;;;;;;;35.10;20.75;;;4.10;99.90;;;;;;4970709;28;20027;-80
2023/11/17 01:16:48;;;;;;;37.75;21.48;;;4.10;99.90;;;;;;4970582;28;20035;-76
2023/11/17 01:19:14;;;;;;;31.25;18.67;;;4.10;99.90;;;;;;4970552;28;20125;-81
2023/11/17 01:21:39;;;;;;;35.25;19.42;;;4.10;99.90;;;;;;5036871;28;20039;-81
2023/11/17 01:24:05;;;;;;;33.40;18.00;;;4.10;99.90;;;;;;5035572;28;20038;-75
2023/11/17 01:26:31;;;;;;;31.00;17.90;;;4.10;99.90;;;;;;4970544;28;20015;-81
2023/11/17 01:28:59;;;;;;;26.50;17.02;;;4.10;99.90;;;;;;4970438;28;20587;-81
2023/11/17 01:31:24;;;;;;;31.42;18.33;;;4.20;99.90;;;;;;5036993;28;20034;-76
2023/11/17 01:33:50;;;;;;;29.92;18.45;;;4.20;99.90;;;;;;5036743;28;20027;-75
2023/11/17 01:36:17;;;;;;;31.08;17.25;;;4.20;99.90;;;;;;5036878;28;20030;-80
2023/11/17 01:38:44;;;;;;;29.13;16.75;;;4.20;99.90;;;;;;5037113;28;20109;-75
2023/11/17 01:41:10;;;;;;;29.23;16.35;;;4.20;99.90;;;;;;5042188;28;20444;-75
2023/11/17 01:43:36;;;;;;;25.95;16.50;;;4.20;99.90;;;;;;5040443;28;20454;-75
2023/11/17 01:46:02;;;;;;;33.53;17.55;;;4.20;99.90;;;;;;4973406;28;20035;-75
2023/11/17 01:48:28;;;;;;;32.55;18.23;;;4.20;99.90;;;;;;5040585;28;20027;-81
2023/11/17 01:50:55;;;;;;;29.15;19.27;;;4.20;99.90;;;;;;4973483;28;20377;-81
2023/11/17 01:53:20;;;;;;;33.05;18.48;;;4.20;99.90;;;;;;4973349;28;20023;-74
2023/11/17 01:55:47;;;;;;;33.70;18.33;;;4.20;99.90;;;;;;4973667;28;20520;-80
2023/11/17 01:58:13;;;;;;;35.78;19.88;;;4.20;99.90;;;;;;4973269;28;20015;-80
2023/11/17 02:00:40;;;;;;;34.63;20.77;;;4.30;99.90;;;;;;4973291;28;20042;-80
2023/11/17 02:03:07;;;;;;;41.63;22.30;;;4.30;99.90;;;;;;5053225;28;20064;-75
2023/11/17 02:05:34;;;;;;;36.50;21.40;;;4.30;99.90;;;;;;5055226;28;20024;-80
2023/11/17 02:08:29;;;;;;;32.83;20.33;;;4.20;99.90;;;;;;5053631;28;20052;-75
2023/11/17 02:11:37;;;;;;;31.92;18.00;;;4.20;99.90;;;;;;5033008;28;20063;-81
2023/11/17 02:14:08;;;;;;;38.45;21.52;;;4.20;99.90;;;;;;4993590;28;20030;-76
2023/11/17 02:16:36;;;;;;;41.88;22.67;;;4.20;99.90;;;;;;5043813;28;20041;-81
2023/11/17 02:19:11;;;;;;;42.83;23.10;;;4.20;99.90;;;;;;5047373;28;20017;-76
2023/11/17 02:21:39;;;;;;;33.53;21.05;;;4.10;99.90;;;;;;5046481;28;20029;-76
2023/11/17 02:24:09;;;;;;;42.50;23.60;;;4.10;99.90;;;;;;5054727;28;20039;-76
2023/11/17 02:26:59;;;;;;;42.17;24.02;;;4.10;99.90;;;;;;5053647;28;20013;-77
2023/11/17 02:29:27;;;;;;;41.17;24.67;;;4.10;99.90;;;;;;5053637;28;20056;-76
2023/11/17 02:31:54;;;;;;;40.22;24.90;;;4.00;99.90;;;;;;5054834;28;20052;-80
2023/11/17 02:34:25;;;;;;;45.83;24.67;;;4.00;99.90;;;;;;5053800;28;20500;-76
2023/11/17 02:36:51;;;;;;;41.63;22.58;;;4.00;99.90;;;;;;5054409;28;20021;-76
2023/11/17 02:39:26;;;;;;;41.03;22.88;;;4.00;99.90;;;;;;5054813;28;20075;-81
2023/11/17 02:41:57;;;;;;;38.90;24.05;;;4.00;99.90;;;;;;5053375;28;20025;-76
2023/11/17 02:44:29;;;;;;;41.72;22.77;;;4.00;99.90;;;;;;5054682;28;20032;-76
2023/11/17 02:46:58;;;;;;;;;;;4.00;99.90;;;;;;5053622;28;20024;-76
2023/11/17 02:52:20;;;;;;;41.10;23.92;;;4.00;99.90;;;;;;5049086;28;20463;-81
2023/11/17 02:54:46;;;;;;;43.60;23.50;;;4.00;99.90;;;;;;5053401;28;20052;-76
2023/11/17 02:57:15;;;;;;;45.95;25.42;;;4.00;99.90;;;;;;5052699;28;20043;-81
2023/11/17 02:59:42;;;;;;;44.58;24.80;;;4.00;99.90;;;;;;5053144;28;20074;-80
2023/11/17 03:02:09;;;;;;;42.67;23.83;;;4.00;99.90;;;;;;5052685;28;20033;-80
2023/11/17 03:04:37;;;;;;;37.85;22.90;;;4.00;99.90;;;;;;5054523;28;20028;-81
2023/11/17 03:07:03;;;;;;;44.08;22.65;;;4.00;99.90;;;;;;5054224;28;20029;-77
2023/11/17 03:09:30;;;;;;;38.75;23.10;;;3.90;99.90;;;;;;5052940;28;20052;-75
2023/11/17 03:11:59;;;;;;;38.45;20.63;;;3.90;99.90;;;;;;5052495;28;20178;-76
2023/11/17 03:14:25;;;;;;;37.83;21.00;;;3.90;99.90;;;;;;5054237;28;20043;-81
2023/11/17 03:16:55;;;;;;;41.28;21.92;;;3.90;99.90;;;;;;5053970;28;20025;-76
2023/11/17 03:19:23;;;;;;;39.65;22.30;;;3.90;99.90;;;;;;5053082;28;20025;-76
2023/11/17 03:21:50;;;;;;;42.85;22.30;;;3.90;99.90;;;;;;5052409;28;20023;-77
2023/11/17 03:24:18;;;;;;;43.15;23.30;;;3.90;99.90;;;;;;5054165;28;20025;-81
2023/11/17 03:26:44;;;;;;;38.28;22.02;;;3.90;99.90;;;;;;5053476;28;20360;-76
2023/11/17 03:29:14;;;;;;;39.60;21.50;;;3.90;99.90;;;;;;5052755;28;20021;-75
2023/11/17 03:31:52;;;;;;;39.20;20.30;;;3.90;99.90;;;;;;5053908;28;20036;-80
2023/11/17 03:34:23;;;;;;;38.00;20.40;;;3.90;99.90;;;;;;5052611;28;20028;-81
2023/11/17 03:37:00;;;;;;;34.63;19.60;;;3.90;99.90;;;;;;5053826;28;20029;-75
2023/11/17 03:39:41;;;;;;;32.05;18.70;;;3.90;99.90;;;;;;5052119;28;20029;-81
2023/11/17 03:42:09;;;;;;;33.78;18.65;;;3.90;99.90;;;;;;5053536;28;20075;-75
2023/11/17 03:44:36;;;;;;;30.90;18.13;;;3.90;99.90;;;;;;5053762;28;20112;-76
2023/11/17 03:47:06;;;;;;;31.10;15.52;;;3.90;99.90;;;;;;5052249;28;20049;-76
2023/11/17 03:49:35;;;;;;;29.35;17.40;;;3.80;99.90;;;;;;5052275;28;20108;-76
2023/11/17 03:52:02;;;;;;;31.83;17.30;;;3.80;99.90;;;;;;5052012;28;20079;-81
2023/11/17 03:54:28;;;;;;;25.60;15.00;;;3.80;99.90;;;;;;5052950;28;20029;-81
2023/11/17 03:56:56;;;;;;;29.02;15.35;;;3.80;99.90;;;;;;5052088;28;20031;-76
2023/11/17 03:59:22;;;;;;;25.25;16.02;;;3.80;99.90;;;;;;5052126;28;20136;-76
2023/11/17 04:01:49;;;;;;;26.65;15.18;;;3.80;99.90;;;;;;5039803;28;20046;-76
2023/11/17 04:04:17;;;;;;;24.27;15.52;;;3.90;99.90;;;;;;5037245;28;20054;-76
2023/11/17 04:06:44;;;;;;;28.92;16.10;;;3.90;99.90;;;;;;5038092;28;20031;-76
2023/11/17 04:09:15;;;;;;;23.63;14.13;;;3.90;99.90;;;;;;5038203;28;20015;-81
2023/11/17 04:11:42;;;;;;;25.13;14.57;;;3.90;99.90;;;;;;4971720;28;20027;-76
2023/11/17 04:14:08;;;;;;;28.15;14.85;;;3.90;99.90;;;;;;5038263;28;20038;-76
2023/11/17 04:16:34;;;;;;;23.08;13.13;;;3.90;99.90;;;;;;5037851;28;20488;-76
2023/11/17 04:19:00;;;;;;;24.35;14.45;;;3.90;99.90;;;;;;5038041;28;20102;-81
2023/11/17 04:21:26;;;;;;;25.40;13.88;;;3.90;99.90;;;;;;4971412;28;20019;-81
2023/11/17 04:23:52;;;;;;;25.10;15.45;;;3.90;99.90;;;;;;5037760;28;20492;-80
2023/11/17 04:26:18;;;;;;;24.15;14.57;;;3.90;99.90;;;;;;4971446;28;20042;-76
2023/11/17 04:28:44;;;;;;;24.77;13.98;;;3.90;99.90;;;;;;5021649;28;20023;-81
2023/11/17 04:31:10;;;;;;;24.02;14.55;;;3.90;99.90;;;;;;4971072;28;20492;-81
2023/11/17 04:33:36;;;;;;;23.65;13.65;;;3.80;99.90;;;;;;5037945;28;20059;-76
2023/11/17 04:36:02;;;;;;;22.52;12.43;;;3.90;99.90;;;;;;4971446;28;20031;-76
2023/11/17 04:38:29;;;;;;;22.60;12.93;;;3.90;99.90;;;;;;4971165;28;20065;-76
2023/11/17 04:40:55;;;;;;;23.35;13.55;;;3.90;99.90;;;;;;4971077;28;20046;-81
2023/11/17 04:43:21;;;;;;;22.35;13.23;;;3.90;99.90;;;;;;4971376;28;20473;-76
2023/11/17 04:45:48;;;;;;;20.27;12.75;;;3.90;99.90;;;;;;5037626;28;20068;-76
2023/11/17 04:48:16;;;;;;;23.45;13.18;;;3.90;99.90;;;;;;4971349;28;20019;-76
2023/11/17 04:50:42;;;;;;;18.13;10.65;;;3.90;99.90;;;;;;5037066;28;20080;-81
2023/11/17 04:53:08;;;;;;;22.38;12.05;;;3.90;99.90;;;;;;4971266;28;20110;-82
2023/11/17 04:55:33;;;;;;;17.30;11.18;;;3.90;99.90;;;;;;4971060;28;20102;-81
2023/11/17 04:58:00;;;;;;;20.08;10.80;;;3.90;99.90;;;;;;5037618;28;20033;-81
2023/11/17 05:00:26;;;;;;;18.50;11.38;;;3.90;99.90;;;;;;5037200;28;20043;-81
2023/11/17 05:02:53;;;;;;;17.33;10.13;;;3.90;99.90;;;;;;4954413;28;20055;-81
2023/11/17 05:05:20;;;;;;;18.58;11.65;;;3.80;99.90;;;;;;4970815;28;20412;-81
2023/11/17 05:07:47;;;;;;;17.90;11.23;;;3.90;99.90;;;;;;5037458;28;20023;-77
2023/11/17 05:10:20;;;;;;;15.77;10.23;;;3.90;99.90;;;;;;4970786;28;20041;-81
2023/11/17 05:12:49;;;;;;;15.35;10.00;;;3.90;99.90;;;;;;5037645;28;20427;-76
2023/11/17 05:15:20;;;;;;;16.42;9.88;;;3.90;99.90;;;;;;5035694;28;20057;-75
2023/11/17 05:17:48;;;;;;;16.10;9.60;;;3.80;99.90;;;;;;5025569;28;20503;-77
2023/11/17 05:20:16;;;;;;;15.63;9.98;;;3.90;99.90;;;;;;4972477;28;20370;-76
2023/11/17 05:22:43;;;;;;;16.17;9.48;;;3.90;99.90;;;;;;4989970;28;20485;-76
2023/11/17 05:25:11;;;;;;;13.80;9.50;;;3.80;99.90;;;;;;5034575;28;20016;-76
2023/11/17 05:27:38;;;;;;;12.70;8.23;;;3.80;99.90;;;;;;5019826;28;20022;-82
2023/11/17 05:30:06;;;;;;;13.52;8.80;;;3.90;99.90;;;;;;4973048;28;20103;-81
2023/11/17 05:32:32;;;;;;;14.30;9.23;;;3.80;99.90;;;;;;4971675;28;20030;-81
2023/11/17 05:34:58;;;;;;;16.30;9.52;;;3.80;99.90;;;;;;4971584;28;20031;-81
2023/11/17 05:37:24;;;;;;;13.98;9.05;;;3.80;99.90;;;;;;4971497;28;20031;-81
2023/11/17 05:39:50;;;;;;;12.50;7.80;;;3.80;99.90;;;;;;5039017;28;20030;-76
2023/11/17 05:42:16;;;;;;;14.60;8.65;;;3.80;99.90;;;;;;5038278;28;20038;-82
2023/11/17 05:44:42;;;;;;;13.50;8.82;;;3.90;99.90;;;;;;5038258;28;20141;-76
2023/11/17 05:47:09;;;;;;;11.95;8.52;;;3.80;99.90;;;;;;4973430;28;20837;-81
2023/11/17 05:49:43;;;;;;;13.07;8.93;;;3.90;99.90;;;;;;5039859;28;20035;-82
2023/11/17 05:52:09;;;;;;;13.60;8.45;;;3.80;99.90;;;;;;4971386;28;20049;-82
2023/11/17 05:54:47;;;;;;;14.48;8.70;;;3.90;99.90;;;;;;5024348;28;20018;-81
2023/11/17 05:57:22;;;;;;;12.85;8.23;;;3.90;99.90;;;;;;5038388;28;20054;-82
2023/11/17 05:59:53;;;;;;;12.90;7.78;;;3.90;99.90;;;;;;4971177;28;20030;-81
2023/11/17 06:02:19;;;;;;;12.93;7.38;;;3.90;99.90;;;;;;5037809;28;20063;-81
2023/11/17 06:04:46;;;;;;;12.30;8.35;;;3.90;99.90;;;;;;4971214;28;20384;-82
2023/11/17 06:07:12;;;;;;;13.15;8.10;;;3.90;99.90;;;;;;4971170;28;20027;-81
2023/11/17 06:09:38;;;;;;;42.63;19.95;;;3.90;99.90;;;;;;4960246;28;20034;-81
2023/11/17 06:12:05;;;;;;;22.67;12.60;;;3.90;99.90;;;;;;4971043;28;20042;-81
2023/11/17 06:14:31;;;;;;;25.52;15.45;;;3.90;99.90;;;;;;4971155;28;20019;-81
2023/11/17 06:16:57;;;;;;;23.73;16.05;;;3.90;99.90;;;;;;4971560;28;20023;-81
2023/11/17 06:19:23;;;;;;;28.77;19.20;;;3.90;99.90;;;;;;4971543;28;20040;-81
2023/11/17 06:21:49;;;;;;;54.30;41.20;;;3.90;99.90;;;;;;5039769;28;20366;-76
2023/11/17 06:24:15;;;;;;;52.33;36.15;;;3.90;99.90;;;;;;5034316;28;20038;-82
2023/11/17 06:26:48;;;;;;;33.80;23.98;;;3.90;99.90;;;;;;4968766;28;20072;-81
2023/11/17 06:29:14;;;;;;;22.98;17.40;;;3.90;99.90;;;;;;5023283;28;20027;-81
2023/11/17 06:31:44;;;;;;;21.58;14.63;;;3.90;99.90;;;;;;5003189;28;20023;-77
2023/11/17 06:34:10;;;;;;;18.08;11.90;;;4.00;99.90;;;;;;5035909;28;20038;-76
2023/11/17 06:36:40;;;;;;;13.60;9.43;;;3.90;99.90;;;;;;5014008;28;20031;-77
2023/11/17 06:39:14;;;;;;;12.80;8.93;;;3.90;99.90;;;;;;5039607;28;20019;-83
2023/11/17 06:41:50;;;;;;;13.07;8.27;;;3.90;99.90;;;;;;5022398;28;20031;-83
2023/11/17 06:44:16;;;;;;;11.48;8.05;;;4.00;99.90;;;;;;4971899;28;20041;-77
2023/11/17 06:46:44;;;;;;;11.77;7.50;;;4.00;99.90;;;;;;4982774;28;20484;-75
2023/11/17 06:49:16;;;;;;;17.35;8.23;;;4.00;99.90;;;;;;5021857;28;20049;-76
2023/11/17 06:51:43;;;;;;;12.75;7.72;;;4.00;99.90;;;;;;5031371;28;20088;-81
2023/11/17 06:54:13;;;;;;;10.52;7.55;;;4.00;99.90;;;;;;5026666;28;20019;-82
2023/11/17 06:56:46;;;;;;;10.35;6.65;;;4.10;99.90;;;;;;4976080;28;20019;-81
2023/11/17 06:59:14;;;;;;;12.32;8.10;;;4.10;99.90;;;;;;5035944;28;20070;-82
2023/11/17 07:01:40;;;;;;;13.43;9.80;;;4.10;99.90;;;;;;4972751;28;20484;-81
2023/11/17 07:04:07;;;;;;;12.73;8.30;;;4.10;99.90;;;;;;4985542;28;20550;-81
2023/11/17 07:06:34;;;;;;;17.10;10.02;;;4.20;99.90;;;;;;4971682;28;20502;-82
2023/11/17 07:09:16;;;;;;;10.27;6.38;;;4.20;99.90;;;;;;5036906;28;20106;-82
2023/11/17 07:11:46;;;;;;;10.80;6.75;;;4.20;99.90;;;;;;4972620;28;20045;-81
2023/11/17 07:14:12;;;;;;;10.00;6.85;;;4.30;99.90;;;;;;4974306;28;20025;-82
2023/11/17 07:16:41;;;;;;;10.30;6.63;;;4.30;99.90;;;;;;4972213;28;20416;-82
2023/11/17 07:19:08;;;;;;;10.60;7.22;;;4.30;99.90;;;;;;5035693;28;20026;-82
2023/11/17 07:21:37;;;;;;;9.52;5.97;;;4.30;99.90;;;;;;4970913;28;20503;-82
2023/11/17 07:24:06;;;;;;;9.73;6.50;;;4.30;99.90;;;;;;4970004;28;20038;-82
2023/11/17 07:26:35;;;;;;;9.43;6.30;;;4.20;99.90;;;;;;5036828;28;20392;-81
2023/11/17 07:29:01;;;;;;;7.70;5.68;;;4.30;99.90;;;;;;4969731;28;20019;-81
2023/11/17 07:31:28;;;;;;;6.38;5.03;;;4.30;99.90;;;;;;5036978;28;20306;-81
2023/11/17 07:33:56;;;;;;;10.40;7.50;;;4.30;99.90;;;;;;4969942;28;20057;-81
2023/11/17 07:36:22;;;;;;;9.18;6.85;;;4.30;99.90;;;;;;4970953;28;20058;-81
2023/11/17 07:38:51;;;;;;;6.68;5.35;;;4.30;99.90;;;;;;5037464;28;20029;-80
2023/11/17 07:41:25;;;;;;;8.02;6.22;;;4.30;99.90;;;;;;4971841;28;20034;-81
2023/11/17 07:43:51;;;;;;;6.95;5.72;;;4.40;99.90;;;;;;4964705;28;20492;-81
2023/11/17 07:46:17;;;;;;;6.18;5.55;;;4.40;99.90;;;;;;4964402;28;20125;-81
2023/11/17 07:48:43;;;;;;;8.10;4.88;;;4.40;99.90;;;;;;5035126;28;20023;-82
2023/11/17 07:51:10;;;;;;;8.60;6.45;;;4.40;99.90;;;;;;4968167;28;20107;-82
2023/11/17 07:53:36;;;;;;;9.68;5.85;;;4.40;99.90;;;;;;5036052;28;20165;-83
2023/11/17 07:56:02;;;;;;;9.45;6.07;;;4.40;99.90;;;;;;4960909;28;20032;-82
2023/11/17 07:58:27;;;;;;;8.82;6.63;;;4.30;99.90;;;;;;4961882;28;20045;-83
2023/11/17 08:00:56;;;;;;;10.63;6.75;;;4.30;99.90;;;;;;5030294;28;20045;-83
2023/11/17 08:03:22;;;;;;;14.00;8.63;;;4.30;99.90;;;;;;4969189;28;20053;-82
2023/11/17 08:05:48;;;;;;;14.80;7.75;;;4.30;99.90;;;;;;5036485;28;20035;-82
2023/11/17 08:08:14;;;;;;;10.75;7.97;;;4.30;99.90;;;;;;4970282;28;20030;-82
2023/11/17 08:10:40;;;;;;;10.80;6.90;;;4.30;99.90;;;;;;4970001;28;20054;-80
2023/11/17 08:13:07;;;;;;;10.55;6.50;;;4.30;99.90;;;;;;4969341;28;20473;-81
2023/11/17 08:15:34;;;;;;;11.82;7.45;;;4.30;99.90;;;;;;5035789;28;20039;-81
2023/11/17 08:18:01;;;;;;;7.93;6.60;;;4.30;99.90;;;;;;5035916;28;20023;-80
2023/11/17 08:20:31;;;;;;;10.82;6.70;;;4.30;99.90;;;;;;4971190;28;20538;-81
2023/11/17 08:23:00;;;;;;;31.17;17.33;;;4.30;99.90;;;;;;5029926;28;20105;-81
2023/11/17 08:25:27;;;;;;;13.52;7.60;;;4.30;99.90;;;;;;4969213;28;20035;-81
2023/11/17 08:27:53;;;;;;;12.02;7.28;;;4.30;99.90;;;;;;4969173;28;20023;-80
2023/11/17 08:30:19;;;;;;;10.07;6.55;;;4.20;99.90;;;;;;5031253;28;20463;-80
2023/11/17 08:32:45;;;;;;;11.90;6.88;;;4.30;99.90;;;;;;4962542;28;20023;-80
2023/11/17 08:35:11;;;;;;;18.08;9.73;;;4.30;99.90;;;;;;5032969;28;20038;-80
2023/11/17 08:37:37;;;;;;;13.13;8.20;;;4.30;99.90;;;;;;4969080;28;20019;-80
2023/11/17 08:40:10;;;;;;;9.32;6.93;;;4.30;99.90;;;;;;5035147;28;20045;-81
2023/11/17 08:42:37;;;;;;;9.85;6.30;;;4.30;99.90;;;;;;4967929;28;20046;-80
2023/11/17 08:45:09;;;;;;;10.40;6.90;;;4.30;99.90;;;;;;4966611;28;20046;-81
2023/11/17 08:47:39;;;;;;;9.75;6.80;;;4.30;99.90;;;;;;4967767;28;20019;-81
2023/11/17 08:50:09;;;;;;;7.65;5.80;;;4.30;99.90;;;;;;4968248;28;20031;-81
2023/11/17 08:52:40;;;;;;;10.50;7.05;;;4.40;99.90;;;;;;5040486;28;20465;-80
2023/11/17 08:55:07;;;;;;;8.73;6.20;;;4.40;99.90;;;;;;5040207;28;20038;-80
2023/11/17 08:57:34;;;;;;;7.88;5.70;;;4.40;99.90;;;;;;5040169;28;20019;-81
2023/11/17 09:00:00;;;;;;;7.40;5.28;;;4.40;99.90;;;;;;4975136;28;20046;-80
2023/11/17 09:02:26;;;;;;;7.68;4.93;;;4.40;99.90;;;;;;5042500;28;20070;-80
2023/11/17 09:04:52;;;;;;;6.95;4.90;;;4.40;99.90;;;;;;4975267;28;20061;-80
2023/11/17 09:07:19;;;;;;;7.13;5.47;;;4.50;99.90;;;;;;4976110;28;20030;-79
2023/11/17 09:09:46;;;;;;;6.90;4.30;;;4.50;99.90;;;;;;5041545;28;20043;-80
2023/11/17 09:12:14;;;;;;;9.38;4.85;;;4.60;99.90;;;;;;5042270;28;20035;-78
2023/11/17 09:14:40;;;;;;;6.15;4.65;;;4.60;99.90;;;;;;5042208;28;20400;-81
2023/11/17 09:17:06;;;;;;;5.93;4.10;;;4.60;99.90;;;;;;4975251;28;20114;-81
2023/11/17 09:19:37;;;;;;;6.05;4.13;;;4.60;99.90;;;;;;4975266;28;20027;-79
2023/11/17 09:22:04;;;;;;;5.85;4.60;;;4.70;99.90;;;;;;4975593;28;20030;-80
2023/11/17 09:24:30;;;;;;;5.95;4.30;;;4.60;99.90;;;;;;4974899;28;20105;-80
2023/11/17 09:26:57;;;;;;;5.50;4.22;;;4.70;99.90;;;;;;4974100;28;20152;-80
2023/11/17 09:29:23;;;;;;;8.80;5.38;;;4.70;99.90;;;;;;5041210;28;20104;-80
2023/11/17 09:31:49;;;;;;;7.18;5.10;;;4.70;99.90;;;;;;4980808;28;20113;-80
2023/11/17 09:34:16;;;;;;;7.43;5.30;;;4.80;99.90;;;;;;4975123;28;20152;-80
2023/11/17 09:36:42;;;;;;;8.45;5.63;;;4.70;99.90;;;;;;5041796;28;20043;-80
2023/11/17 09:39:10;;;;;;;6.97;5.70;;;4.70;99.90;;;;;;4975207;28;20023;-80
2023/11/17 09:41:39;;;;;;;9.10;5.25;;;4.70;99.90;;;;;;5043519;28;20031;-80
2023/11/17 09:44:09;;;;;;;12.07;6.90;;;4.70;99.90;;;;;;5033952;28;20034;-80
2023/11/17 09:46:45;;;;;;;10.23;5.88;;;4.70;99.90;;;;;;5042158;28;20031;-80
2023/11/17 09:49:15;;;;;;;8.48;6.07;;;4.70;99.90;;;;;;4974197;28;20031;-80
2023/11/17 09:51:42;;;;;;;10.63;5.82;;;4.70;99.90;;;;;;5040443;28;20050;-81
2023/11/17 09:54:13;;;;;;;9.85;6.40;;;4.70;99.90;;;;;;5042605;28;20034;-80
2023/11/17 09:56:42;;;;;;;10.25;6.32;;;4.70;99.90;;;;;;4974450;28;20061;-80
2023/11/17 09:59:09;;;;;;;10.95;6.72;;;4.70;99.90;;;;;;4975258;28;20027;-79
2023/11/17 10:01:36;;;;;;;10.68;6.47;;;4.80;99.90;;;;;;4974090;28;20550;-79
2023/11/17 10:04:03;;;;;;;8.15;5.90;;;4.80;99.90;;;;;;5039641;28;20035;-80
2023/11/17 10:06:30;;;;;;;10.98;6.80;;;4.80;99.90;;;;;;4971992;28;20039;-80
2023/11/17 10:08:58;;;;;;;8.98;6.15;;;4.80;99.90;;;;;;5034070;28;20019;-81
2023/11/17 10:11:25;;;;;;;8.13;5.72;;;4.80;99.90;;;;;;5036899;28;20031;-80
2023/11/17 10:13:54;;;;;;;8.55;6.40;;;4.80;99.90;;;;;;4971800;28;20019;-81
2023/11/17 10:16:23;;;;;;;10.00;5.57;;;4.80;99.90;;;;;;5034771;28;20027;-81
2023/11/17 10:18:50;;;;;;;9.35;5.50;;;4.80;99.90;;;;;;5032844;28;20023;-81
2023/11/17 10:21:19;;;;;;;8.65;5.57;;;4.80;99.90;;;;;;5032752;28;20130;-82
2023/11/17 10:23:46;;;;;;;7.60;5.43;;;4.80;99.90;;;;;;4971274;28;20592;-82
2023/11/17 10:26:12;;;;;;;7.78;5.75;;;4.80;99.90;;;;;;5037330;28;20073;-81
2023/11/17 10:28:38;;;;;;;11.75;7.28;;;4.80;99.90;;;;;;4972062;28;20473;-82
2023/11/17 10:31:07;;;;;;;14.18;9.50;;;4.80;99.90;;;;;;4971249;28;20042;-82
2023/11/17 10:33:37;;;;;;;12.05;8.85;;;4.90;99.90;;;;;;5037947;28;20015;-81
2023/11/17 10:36:10;;;;;;;15.82;9.05;;;4.80;99.90;;;;;;5038390;28;20030;-76
2023/11/17 10:38:36;;;;;;;15.13;9.07;;;4.80;99.90;;;;;;5038661;28;20396;-77
2023/11/17 10:41:22;;;;;;;15.40;9.93;;;4.90;99.90;;;;;;4971137;28;20466;-77
2023/11/17 10:43:52;;;;;;;19.08;11.45;;;4.90;99.90;;;;;;5038354;28;20620;-77
2023/11/17 10:46:23;;;;;;;25.80;13.77;;;4.80;99.90;;;;;;4970833;28;20035;-75
2023/11/17 10:48:53;;;;;;;28.92;15.10;;;4.70;99.90;;;;;;4970977;28;20058;-75
2023/11/17 10:51:21;;;;;;;30.70;15.85;;;4.60;99.90;;;;;;5037593;28;20051;-74
2023/11/17 10:54:01;;;;;;;22.30;12.80;;;4.60;99.90;;;;;;4971355;28;20035;-75
2023/11/17 10:56:27;;;;;;;17.77;10.95;;;4.50;99.90;;;;;;5037224;28;20043;-76
2023/11/17 10:58:55;;;;;;;29.67;15.02;;;4.50;99.90;;;;;;5033939;28;20027;-75
2023/11/17 11:01:31;;;;;;;41.58;21.05;;;4.50;99.90;;;;;;5034416;28;20027;-75
2023/11/17 11:03:58;;;;;;;23.50;13.25;;;4.50;99.90;;;;;;4963531;28;20489;-75
2023/11/17 11:06:27;;;;;;;21.77;13.45;;;4.50;99.90;;;;;;4971147;28;20027;-78
2023/11/17 11:08:54;;;;;;;27.65;15.32;;;4.40;99.90;;;;;;5037385;28;20065;-74
2023/11/17 11:11:24;;;;;;;24.95;15.15;;;4.40;99.90;;;;;;5036513;28;20011;-75
2023/11/17 11:14:03;;;;;;;24.17;13.35;;;4.40;99.90;;;;;;5037218;28;20030;-75
2023/11/17 11:16:31;;;;;;;23.70;14.02;;;4.40;99.90;;;;;;4971385;28;20047;-80
2023/11/17 11:18:58;;;;;;;24.05;13.80;;;4.40;99.90;;;;;;4971021;28;20489;-80
2023/11/17 11:21:27;;;;;;;31.83;14.38;;;4.40;99.90;;;;;;4971162;28;20088;-80
2023/11/17 11:23:59;;;;;;;26.58;13.32;;;4.40;99.90;;;;;;5037512;28;20426;-80
2023/11/17 11:26:26;;;;;;;28.95;14.75;;;4.40;99.90;;;;;;4970211;28;20464;-80
2023/11/17 11:28:53;;;;;;;26.25;15.15;;;4.40;99.90;;;;;;5033829;28;20032;-80
2023/11/17 11:31:20;;;;;;;30.60;16.27;;;4.40;99.90;;;;;;4954025;28;20076;-80
2023/11/17 11:33:47;;;;;;;26.38;15.20;;;4.40;99.90;;;;;;4967902;28;20794;-80
2023/11/17 11:36:14;;;;;;;28.05;14.93;;;4.30;99.90;;;;;;5037822;28;20076;-80
2023/11/17 11:38:41;;;;;;;30.75;16.42;;;4.20;99.90;;;;;;4969012;28;20415;-80
2023/11/17 11:41:11;;;;;;;28.58;15.68;;;4.20;99.90;;;;;;4964317;28;20055;-80
2023/11/17 11:43:47;;;;;;;63.50;40.03;;;4.20;99.90;;;;;;5035419;28;20061;-79
2023/11/17 11:46:17;;;;;;;34.78;18.70;;;4.20;99.90;;;;;;4970606;28;20030;-80
2023/11/17 11:48:49;;;;;;;34.80;19.40;;;4.20;99.90;;;;;;4969005;28;20089;-80
2023/11/17 11:51:17;;;;;;;26.17;14.85;;;4.20;99.90;;;;;;5029875;28;20524;-80
2023/11/17 11:54:10;;;;;;;26.65;13.45;;;4.20;99.90;;;;;;4969821;28;20054;-79
2023/11/17 11:56:47;;;;;;;27.02;13.75;;;4.10;99.90;;;;;;4965894;28;20035;-80
2023/11/17 11:59:13;;;;;;;26.75;13.80;;;4.20;99.90;;;;;;4969282;28;20035;-79
2023/11/17 12:01:42;;;;;;;36.97;21.10;;;4.20;99.90;;;;;;5033925;28;20035;-80
2023/11/17 12:04:10;;;;;;;27.92;15.60;;;4.20;99.90;;;;;;5035530;28;20424;-80
2023/11/17 12:06:37;;;;;;;20.08;12.57;;;4.10;99.90;;;;;;5035968;28;20080;-80
2023/11/17 12:09:08;;;;;;;22.00;13.10;;;4.10;99.90;;;;;;5029593;28;20096;-80
2023/11/17 12:11:36;;;;;;;19.60;13.05;;;4.10;99.90;;;;;;4963441;28;20023;-80
2023/11/17 12:14:07;;;;;;;14.57;11.27;;;4.10;99.90;;;;;;4986449;28;20085;-80
2023/11/17 12:16:39;;;;;;;18.85;11.68;;;4.00;99.90;;;;;;5031267;28;20023;-80
2023/11/17 12:19:06;;;;;;;17.33;10.50;;;4.10;99.90;;;;;;4968952;28;20035;-80
2023/11/17 12:21:38;;;;;;;22.25;11.63;;;4.10;99.90;;;;;;5036161;28;20109;-80
2023/11/17 12:24:12;;;;;;;24.13;20.58;;;4.10;99.90;;;;;;4968027;28;21473;-80
2023/11/17 12:26:44;;;;;;;19.23;11.48;;;4.00;99.90;;;;;;4967897;28;20034;-80
2023/11/17 12:29:19;;;;;;;20.67;13.10;;;4.00;99.90;;;;;;4969183;28;20084;-81
2023/11/17 12:31:51;;;;;;;19.88;12.82;;;4.00;99.90;;;;;;4963978;28;20035;-80
2023/11/17 12:34:17;;;;;;;19.00;11.23;;;4.00;99.90;;;;;;5050645;28;20125;-80
2023/11/17 12:36:45;;;;;;;21.63;12.88;;;4.00;99.90;;;;;;4970010;28;20109;-80
2023/11/17 12:39:14;;;;;;;24.63;17.60;;;4.00;99.90;;;;;;4969095;28;20073;-81
2023/11/17 12:41:39;;;;;;;20.33;11.35;;;3.90;99.90;;;;;;4969966;28;20030;-80
2023/11/17 12:44:05;;;;;;;21.83;14.13;;;3.90;99.90;;;;;;5032943;28;20611;-80
2023/11/17 12:46:31;;;;;;;21.27;13.88;;;3.80;99.90;;;;;;4966658;28;20030;-81
2023/11/17 12:49:05;;;;;;;24.58;14.10;;;3.80;99.90;;;;;;4968722;28;20042;-81
2023/11/17 12:51:31;;;;;;;31.38;15.48;;;3.70;99.90;;;;;;4971702;28;20108;-80